»·PEaware :: N618DH KSBP-KBFL

N618DH :: KSBP-KBFL

FLIGHT INFORMATION

Flight Status: Arrived
Operator: Privately registered:
United States
More flights under this callsign
Pilot: John R. (32678)
Aircraft: CESSNA 172 SKYHAWK
(C172)
More flights by this aircraft type
Origin: KSBP San Luis Co Regl
United States
Destination: KBFL Meadows
United States
More flights between these airports :: More routes between these airports
Route: FLW
File this flight plan on PilotEdge
Remarks:
Altitude:
(Current/Filed)
7,500ft
Speed:
(Current/Filed)
115kts
Departed: 09-Jan-21 05:45 PM
Arrived: 09-Jan-21 06:28 PM
Distance/Time
Traveled:
688nm/0:43
Distance/Time
To Go:
Arrived

Flight Plot

Page will automatically refresh every two minutes.

Flight plan parsing failed; only flown route is shown


Map Options




Map Legend


Flown Route
Filed Route
Departure Airport
Arrival Airport
Navaid (VOR, NDB)
Fix

Horizontal Profiles

Position Reports

Time Latitude Longitude Heading Altitude Ground
Speed
09-Jan-21 17:43 34.863302 -120.481054 148 3349ft 119kts
09-Jan-21 17:44 34.835891 -120.459267 148 4032ft 116kts
09-Jan-21 17:45 34.834214 -120.428906 47 4718ft 100kts
09-Jan-21 17:46 34.849367 -120.401162 47 5402ft 97kts
09-Jan-21 17:47 34.863660 -120.374312 47 6085ft 91kts
09-Jan-21 17:48 34.876732 -120.348903 46 6766ft 85kts
09-Jan-21 17:49 34.887951 -120.325839 46 7431ft 73kts
09-Jan-21 17:50 34.902155 -120.298583 47 7492ft 114kts
09-Jan-21 17:51 34.921113 -120.264772 47 7488ft 123kts
09-Jan-21 17:52 34.940658 -120.229988 47 7488ft 124kts
09-Jan-21 17:53 34.960188 -120.195081 47 7485ft 125kts
09-Jan-21 17:54 34.979845 -120.159843 47 7482ft 124kts
09-Jan-21 17:55 35.001935 -120.130645 35 7479ft 115kts
09-Jan-21 17:56 35.018797 -120.094339 58 7368ft 127kts
09-Jan-21 17:57 35.031867 -120.054653 59 7365ft 125kts
09-Jan-21 17:58 35.044814 -120.014798 60 7362ft 126kts
09-Jan-21 17:59 35.057750 -119.974881 60 7362ft 126kts
09-Jan-21 18:00 35.070697 -119.934891 60 7363ft 126kts
09-Jan-21 18:01 35.083620 -119.894935 60 7363ft 126kts
09-Jan-21 18:02 35.097519 -119.855742 54 7363ft 124kts
09-Jan-21 18:03 35.113458 -119.818008 53 7366ft 125kts
09-Jan-21 18:04 35.129569 -119.780109 54 7365ft 126kts
09-Jan-21 18:05 35.146252 -119.740918 55 7099ft 133kts
09-Jan-21 18:06 35.163230 -119.700843 55 6611ft 132kts
09-Jan-21 18:07 35.180066 -119.661162 55 6123ft 131kts
09-Jan-21 18:08 35.196775 -119.621757 56 5635ft 130kts
09-Jan-21 18:09 35.213361 -119.582605 56 5144ft 128kts
09-Jan-21 18:10 35.229670 -119.544078 57 4653ft 127kts
09-Jan-21 18:11 35.245927 -119.505589 57 4122ft 128kts
09-Jan-21 18:12 35.262359 -119.466676 57 3530ft 129kts
09-Jan-21 18:13 35.278940 -119.427345 58 2935ft 130kts
09-Jan-21 18:14 35.295331 -119.388396 58 2483ft 122kts
09-Jan-21 18:15 35.310069 -119.353388 58 2482ft 112kts
09-Jan-21 18:16 35.325497 -119.320704 49 2481ft 110kts
09-Jan-21 18:17 35.343573 -119.290649 49 2481ft 109kts
09-Jan-21 18:18 35.361732 -119.260466 49 2481ft 109kts
09-Jan-21 18:19 35.379890 -119.230434 49 2483ft 109kts
09-Jan-21 18:20 35.398249 -119.199909 53 2350ft 118kts
09-Jan-21 18:21 35.415005 -119.164409 62 1949ft 118kts
09-Jan-21 18:22 35.428282 -119.127799 73 1546ft 118kts
09-Jan-21 18:23 35.424791 -119.090456 76 1488ft 109kts
09-Jan-21 18:24 35.411462 -119.060357 147 1444ft 117kts
09-Jan-21 18:25 35.406559 -119.033330 47 1368ft 109kts
09-Jan-21 18:26 35.423826 -119.044298 316 856ft 57kts
09-Jan-21 18:27 35.433269 -119.055519 317 509ft 39kts
09-Jan-21 18:28 35.437039 -119.058889 39 509ft 0kts
09-Jan-21 18:29 35.434011 -119.054164 135 509ft 25kts
09-Jan-21 18:30 35.430214 -119.047773 61 509ft 15kts
09-Jan-21 18:31 35.430372 -119.047287 229 509ft 0kts
09-Jan-21 18:32 35.430372 -119.047287 229 509ft 0kts
09-Jan-21 18:33 35.430372 -119.047287 229 509ft 0kts
09-Jan-21 18:34 35.430372 -119.047287 229 509ft 0kts
09-Jan-21 18:35 35.430372 -119.047287 229 509ft 0kts
09-Jan-21 18:36 35.430372 -119.047287 229 509ft 0kts
09-Jan-21 18:37 35.430372 -119.047287 229 509ft 0kts
09-Jan-21 18:38 35.430372 -119.047287 229 509ft 0kts
09-Jan-21 18:39 35.430372 -119.047287 229 509ft 0kts
09-Jan-21 18:40 35.034705 -106.619719 46 5358ft 0kts
09-Jan-21 18:41 35.034705 -106.619719 46 5358ft 0kts

Navigation Log

Ident Type
Flight plan parsing failed, navigation log unavailable